Time;durP1;ratioP1;P1;durP2;ratioP2;P2;SDS_P1;SDS_P2;PMS_P1;PMS_P2;Temp;Humidity;BMP_temperature;BMP_pressure;BME280_temperature;BME280_humidity;BME280_pressure;Samples;Min_cycle;Max_cycle;Signal;HPM_P1;HPM_P2
2024/01/10 00:02:01;;;;;;;7.67;6.60;;;-3.20;99.90;;;;;;5024908;28;20034;-69
2024/01/10 00:04:27;;;;;;;10.33;7.57;;;-3.20;99.90;;;;;;5024293;28;20037;-69
2024/01/10 00:06:52;;;;;;;14.87;7.53;;;-3.20;99.90;;;;;;5022853;28;20033;-67
2024/01/10 00:09:18;;;;;;;13.30;8.27;;;-3.20;99.90;;;;;;5015486;28;20034;-68
2024/01/10 00:11:44;;;;;;;12.27;7.40;;;-3.20;99.90;;;;;;5020141;28;20180;-67
2024/01/10 00:14:10;;;;;;;12.63;7.00;;;-3.20;99.90;;;;;;5021134;28;20148;-70
2024/01/10 00:16:36;;;;;;;10.82;7.63;;;-3.20;99.90;;;;;;5022020;28;20037;-71
2024/01/10 00:19:01;;;;;;;11.60;8.30;;;-3.30;99.90;;;;;;5021477;28;20033;-67
2024/01/10 00:21:28;;;;;;;9.30;6.50;;;-3.30;99.90;;;;;;5024261;28;20398;-67
2024/01/10 00:23:54;;;;;;;11.40;7.30;;;-3.30;99.90;;;;;;5024366;28;20413;-67
2024/01/10 00:26:19;;;;;;;12.98;7.55;;;-3.30;99.90;;;;;;5026766;28;20116;-68
2024/01/10 00:28:48;;;;;;;10.23;7.77;;;-3.30;99.90;;;;;;5024458;28;20056;-68
2024/01/10 00:31:14;;;;;;;12.20;7.75;;;-3.30;99.90;;;;;;5027701;28;20049;-67
2024/01/10 00:33:40;;;;;;;10.38;7.88;;;-3.30;99.90;;;;;;5023378;28;20402;-67
2024/01/10 00:36:06;;;;;;;9.48;7.18;;;-3.30;99.90;;;;;;5022640;28;20157;-70
2024/01/10 00:38:32;;;;;;;;;;;-3.30;99.90;;;;;;5024761;28;20029;-70
2024/01/10 00:40:57;;;;;;;11.43;6.82;;;-3.30;99.90;;;;;;5023095;28;19928;-67
2024/01/10 00:43:23;;;;;;;10.90;7.13;;;-3.40;99.90;;;;;;5014474;28;20117;-68
2024/01/10 00:45:49;;;;;;;7.97;7.03;;;-3.40;99.90;;;;;;5020613;28;20042;-69
2024/01/10 00:48:14;;;;;;;8.93;6.80;;;-3.40;99.90;;;;;;5018954;28;20419;-67
2024/01/10 00:50:40;;;;;;;9.53;6.77;;;-3.40;99.90;;;;;;5022303;28;20132;-69
2024/01/10 00:53:06;;;;;;;10.57;6.90;;;-3.40;99.90;;;;;;5021806;28;20040;-67
2024/01/10 00:55:31;;;;;;;9.63;5.73;;;-3.40;99.90;;;;;;5041834;28;20033;-68
2024/01/10 00:57:57;;;;;;;9.33;6.77;;;-3.40;99.90;;;;;;5027267;28;20037;-68
2024/01/10 01:00:23;;;;;;;10.90;7.60;;;-3.40;99.90;;;;;;5027884;28;20494;-68
2024/01/10 01:02:48;;;;;;;8.00;6.50;;;-3.40;99.90;;;;;;5027641;28;20041;-70
2024/01/10 01:05:14;;;;;;;8.50;5.73;;;-3.40;99.90;;;;;;5020308;28;20091;-68
2024/01/10 01:07:40;;;;;;;11.17;6.50;;;-3.40;99.90;;;;;;5021250;28;20423;-68
2024/01/10 01:10:08;;;;;;;8.77;6.38;;;-3.40;99.90;;;;;;5017182;28;20220;-67
2024/01/10 01:12:34;;;;;;;9.57;6.85;;;-3.40;99.90;;;;;;5018490;28;20104;-67
2024/01/10 01:15:00;;;;;;;9.77;7.80;;;-3.50;99.90;;;;;;5021316;28;20478;-68
2024/01/10 01:17:25;;;;;;;8.13;5.97;;;-3.50;99.90;;;;;;5022143;28;20045;-68
2024/01/10 01:19:51;;;;;;;7.10;5.87;;;-3.50;99.90;;;;;;5019331;28;20098;-69
2024/01/10 01:22:16;;;;;;;9.30;6.53;;;-3.50;99.90;;;;;;5025498;28;20433;-69
2024/01/10 01:24:42;;;;;;;6.90;5.27;;;-3.50;99.90;;;;;;5014746;28;20042;-67
2024/01/10 01:27:08;;;;;;;8.03;5.47;;;-3.50;99.90;;;;;;5022897;28;20037;-68
2024/01/10 01:29:33;;;;;;;8.27;6.30;;;-3.50;99.90;;;;;;5019923;28;20072;-67
2024/01/10 01:31:59;;;;;;;10.77;6.87;;;-3.50;99.90;;;;;;5019739;28;20034;-69
2024/01/10 01:34:24;;;;;;;7.83;6.47;;;-3.50;99.90;;;;;;5020223;28;20149;-67
2024/01/10 01:36:51;;;;;;;6.60;6.00;;;-3.50;99.90;;;;;;5018153;28;20493;-68
2024/01/10 01:39:18;;;;;;;8.32;6.78;;;-3.50;99.90;;;;;;5027895;28;20037;-67
2024/01/10 01:41:43;;;;;;;;;;;-3.50;99.90;;;;;;5024049;28;20099;-72
2024/01/10 01:44:09;;;;;;;10.30;7.18;;;-3.60;99.90;;;;;;5020082;28;19917;-68
2024/01/10 01:46:35;;;;;;;7.70;5.70;;;-3.60;99.90;;;;;;5023147;28;20498;-68
2024/01/10 01:49:01;;;;;;;7.53;6.70;;;-3.60;99.90;;;;;;5022825;28;20073;-67
2024/01/10 01:51:29;;;;;;;8.18;5.82;;;-3.60;99.90;;;;;;5024874;28;20515;-68
2024/01/10 01:53:55;;;;;;;6.68;5.70;;;-3.60;99.90;;;;;;5018016;28;20037;-69
2024/01/10 01:56:20;;;;;;;11.02;6.55;;;-3.60;99.90;;;;;;5019624;28;20030;-68
2024/01/10 01:58:47;;;;;;;11.63;6.57;;;-3.60;99.90;;;;;;5018712;28;20045;-66
2024/01/10 02:01:13;;;;;;;6.90;5.85;;;-3.70;99.90;;;;;;5021280;28;20053;-69
2024/01/10 02:03:39;;;;;;;8.25;6.35;;;-3.70;99.90;;;;;;5017164;28;20090;-66
2024/01/10 02:06:05;;;;;;;10.20;6.37;;;-3.60;99.90;;;;;;5018779;28;20317;-68
2024/01/10 02:08:35;;;;;;;8.53;6.70;;;-3.70;99.90;;;;;;5018784;28;20033;-66
2024/01/10 02:11:02;;;;;;;12.20;6.75;;;-3.70;99.90;;;;;;5016898;28;20346;-67
2024/01/10 02:13:28;;;;;;;9.05;6.68;;;-3.70;99.90;;;;;;5018671;28;20030;-69
2024/01/10 02:15:54;;;;;;;7.03;6.00;;;-3.70;99.90;;;;;;5023568;28;20397;-68
2024/01/10 02:18:20;;;;;;;9.85;6.32;;;-3.80;99.90;;;;;;5020526;28;20038;-67
2024/01/10 02:20:46;;;;;;;9.73;7.07;;;-3.80;99.90;;;;;;5023129;28;20421;-69
2024/01/10 02:23:12;;;;;;;11.85;6.93;;;-3.80;99.90;;;;;;5023912;28;20632;-69
2024/01/10 02:25:39;;;;;;;9.93;6.75;;;-3.80;99.90;;;;;;5023616;28;20072;-69
2024/01/10 02:28:05;;;;;;;8.52;7.03;;;-3.90;99.90;;;;;;5019494;28;20060;-67
2024/01/10 02:30:31;;;;;;;10.75;8.02;;;-3.80;99.90;;;;;;5015578;28;20037;-68
2024/01/10 02:32:56;;;;;;;12.53;7.23;;;-3.80;99.90;;;;;;5016145;28;20073;-71
2024/01/10 02:35:22;;;;;;;10.40;6.80;;;-3.90;99.90;;;;;;5017530;28;20033;-68
2024/01/10 02:37:51;;;;;;;8.63;6.83;;;-3.90;99.90;;;;;;5016139;28;20033;-67
2024/01/10 02:40:17;;;;;;;9.50;6.10;;;-3.90;99.90;;;;;;5025624;28;20085;-68
2024/01/10 02:42:42;;;;;;;10.52;7.05;;;-3.90;99.90;;;;;;5015466;28;20037;-67
2024/01/10 02:45:08;;;;;;;8.85;5.63;;;-3.90;99.90;;;;;;5021870;28;20030;-69
2024/01/10 02:47:34;;;;;;;7.55;6.57;;;-3.90;99.90;;;;;;5018297;28;20033;-68
2024/01/10 02:50:00;;;;;;;9.45;7.38;;;-3.90;99.90;;;;;;5020414;28;20160;-68
2024/01/10 02:52:26;;;;;;;11.60;7.97;;;-3.90;99.90;;;;;;5022467;28;20140;-67
2024/01/10 02:54:51;;;;;;;12.10;6.90;;;-3.90;99.90;;;;;;5022718;28;20036;-70
2024/01/10 02:57:17;;;;;;;8.77;6.97;;;-3.90;99.90;;;;;;5023344;28;20037;-67
2024/01/10 02:59:42;;;;;;;10.47;7.53;;;-3.90;99.90;;;;;;5023985;28;20044;-68
2024/01/10 03:02:08;;;;;;;7.80;6.97;;;-3.90;99.90;;;;;;5021535;28;20088;-69
2024/01/10 03:04:34;;;;;;;8.57;6.80;;;-3.90;99.90;;;;;;5018937;28;20037;-68
2024/01/10 03:06:59;;;;;;;8.03;6.97;;;-4.00;99.90;;;;;;5014893;28;20290;-67
2024/01/10 03:09:25;;;;;;;10.17;7.20;;;-4.00;99.90;;;;;;5022218;28;20413;-68
2024/01/10 03:11:51;;;;;;;10.30;7.37;;;-4.00;99.90;;;;;;5011529;28;20068;-68
2024/01/10 03:14:16;;;;;;;8.87;7.10;;;-4.00;99.90;;;;;;5021326;28;20555;-68
2024/01/10 03:16:42;;;;;;;12.47;6.63;;;-4.00;99.90;;;;;;5017907;28;20029;-67
2024/01/10 03:19:07;;;;;;;8.40;6.47;;;-4.00;99.90;;;;;;5021825;28;20037;-67
2024/01/10 03:21:33;;;;;;;8.77;6.07;;;-4.00;99.90;;;;;;5018511;28;20029;-68
2024/01/10 03:24:00;;;;;;;12.03;7.17;;;-4.00;99.90;;;;;;5018586;28;20042;-69
2024/01/10 03:26:27;;;;;;;9.80;6.55;;;-4.00;99.90;;;;;;5017925;28;20041;-68
2024/01/10 03:28:53;;;;;;;8.32;6.40;;;-4.00;99.90;;;;;;5019153;28;20478;-68
2024/01/10 03:31:19;;;;;;;10.13;7.00;;;-4.00;99.90;;;;;;5020973;28;20124;-67
2024/01/10 03:33:45;;;;;;;9.40;6.53;;;-4.00;99.90;;;;;;5019807;28;20061;-67
2024/01/10 03:36:16;;;;;;;8.02;5.78;;;-4.00;99.90;;;;;;5023151;28;20442;-68
2024/01/10 03:38:42;;;;;;;9.45;7.10;;;-4.00;99.90;;;;;;5020952;28;20040;-69
2024/01/10 03:41:12;;;;;;;10.32;6.75;;;-4.00;99.90;;;;;;5021266;28;20057;-68
2024/01/10 03:43:38;;;;;;;9.38;6.20;;;-4.00;99.90;;;;;;5014782;28;20042;-69
2024/01/10 03:46:03;;;;;;;13.70;7.43;;;-4.00;99.90;;;;;;5012588;28;20046;-70
2024/01/10 03:48:29;;;;;;;8.43;6.30;;;-4.00;99.90;;;;;;5015731;28;20076;-67
2024/01/10 03:50:55;;;;;;;11.90;7.53;;;-4.00;99.90;;;;;;5015591;28;20395;-68
2024/01/10 03:53:20;;;;;;;8.23;6.37;;;-4.00;99.90;;;;;;5020413;28;20053;-69
2024/01/10 03:55:46;;;;;;;8.57;7.20;;;-4.00;99.90;;;;;;5017503;28;20030;-69
2024/01/10 03:58:11;;;;;;;9.47;6.77;;;-4.00;99.90;;;;;;5024566;28;20124;-69
2024/01/10 04:00:37;;;;;;;9.77;7.27;;;-4.00;99.90;;;;;;5021795;28;20049;-68
2024/01/10 04:03:03;;;;;;;10.67;7.53;;;-4.00;99.90;;;;;;5022539;28;20537;-70
2024/01/10 04:05:29;;;;;;;11.90;7.22;;;-4.00;99.90;;;;;;5032234;28;20049;-69
2024/01/10 04:07:56;;;;;;;9.50;7.57;;;-4.00;99.90;;;;;;5019069;28;20040;-67
2024/01/10 04:10:22;;;;;;;11.85;8.25;;;-4.00;99.90;;;;;;5019150;28;20448;-67
2024/01/10 04:12:48;;;;;;;13.43;7.53;;;-4.00;99.90;;;;;;5016652;28;20041;-69
2024/01/10 04:15:13;;;;;;;11.97;6.90;;;-4.00;99.90;;;;;;5022231;28;20306;-69
2024/01/10 04:17:39;;;;;;;10.57;7.27;;;-4.00;99.90;;;;;;5024869;28;20041;-68
2024/01/10 04:20:05;;;;;;;7.40;6.67;;;-4.00;99.90;;;;;;5023110;28;20461;-68
2024/01/10 04:22:31;;;;;;;12.85;7.70;;;-4.00;99.90;;;;;;5018111;28;20046;-68
2024/01/10 04:24:58;;;;;;;10.48;7.93;;;-4.10;99.90;;;;;;5027193;28;20040;-68
2024/01/10 04:27:24;;;;;;;12.63;6.93;;;-4.10;99.90;;;;;;5027669;28;20037;-71
2024/01/10 04:29:49;;;;;;;11.40;7.87;;;-4.10;99.90;;;;;;5020017;28;20034;-68
2024/01/10 04:32:15;;;;;;;11.73;8.23;;;-4.10;99.90;;;;;;5022344;28;20038;-68
2024/01/10 04:34:41;;;;;;;10.57;7.17;;;-4.00;99.90;;;;;;5021978;28;20041;-67
2024/01/10 04:37:06;;;;;;;11.68;8.45;;;-4.10;99.90;;;;;;5024753;28;20060;-68
2024/01/10 04:39:33;;;;;;;10.73;7.50;;;-4.10;99.90;;;;;;5038773;28;20112;-71
2024/01/10 04:41:59;;;;;;;13.30;7.70;;;-4.10;99.90;;;;;;5024425;28;20454;-67
2024/01/10 04:44:24;;;;;;;12.87;8.47;;;-4.10;99.90;;;;;;5022752;28;20140;-70
2024/01/10 04:46:50;;;;;;;12.30;8.40;;;-4.10;99.90;;;;;;5023608;28;20137;-69
2024/01/10 04:49:16;;;;;;;11.33;7.70;;;-4.00;99.90;;;;;;5023782;28;20033;-67
2024/01/10 04:51:42;;;;;;;10.33;7.20;;;-4.10;99.90;;;;;;5020585;28;20069;-67
2024/01/10 04:54:08;;;;;;;15.93;8.95;;;-4.00;99.90;;;;;;5023311;28;20036;-68
2024/01/10 04:56:36;;;;;;;11.52;8.00;;;-4.10;99.90;;;;;;5022092;28;20036;-68
2024/01/10 04:59:02;;;;;;;11.25;7.80;;;-4.10;99.90;;;;;;5023527;28;20052;-68
2024/01/10 05:01:27;;;;;;;13.95;9.18;;;-4.10;99.90;;;;;;5009219;28;20032;-71
2024/01/10 05:03:53;;;;;;;16.33;9.43;;;-4.10;99.90;;;;;;5017909;28;20132;-67
2024/01/10 05:06:19;;;;;;;11.97;9.07;;;-4.10;99.90;;;;;;5022895;28;20069;-69
2024/01/10 05:08:44;;;;;;;11.60;7.70;;;-4.10;99.90;;;;;;5021247;28;20041;-67
2024/01/10 05:11:11;;;;;;;15.40;8.77;;;-4.10;99.90;;;;;;5034992;28;20328;-69
2024/01/10 05:13:36;;;;;;;12.85;9.93;;;-4.10;99.90;;;;;;5017705;28;20069;-69
2024/01/10 05:16:02;;;;;;;14.10;9.23;;;-4.10;99.90;;;;;;5022643;28;20076;-70
2024/01/10 05:18:28;;;;;;;14.70;8.77;;;-4.10;99.90;;;;;;5020982;28;20042;-67
2024/01/10 05:20:53;;;;;;;12.07;8.33;;;-4.10;99.90;;;;;;5019637;28;20037;-67
2024/01/10 05:23:19;;;;;;;13.00;9.20;;;-4.20;99.90;;;;;;5022035;28;20068;-68
2024/01/10 05:25:45;;;;;;;14.40;9.73;;;-4.20;99.90;;;;;;5019506;28;20100;-68
2024/01/10 05:28:11;;;;;;;13.50;9.40;;;-4.20;99.90;;;;;;5021272;28;20087;-69
2024/01/10 05:30:36;;;;;;;14.60;9.30;;;-4.20;99.90;;;;;;5024730;28;20075;-67
2024/01/10 05:33:02;;;;;;;15.03;9.63;;;-4.20;99.90;;;;;;5022271;28;20117;-67
2024/01/10 05:35:28;;;;;;;17.13;9.80;;;-4.20;99.90;;;;;;5023722;28;20265;-67
2024/01/10 05:37:54;;;;;;;14.88;8.93;;;-4.20;99.90;;;;;;5024778;28;20032;-68
2024/01/10 05:40:20;;;;;;;13.88;9.40;;;-4.20;99.90;;;;;;5036185;28;20133;-68
2024/01/10 05:42:45;;;;;;;16.10;9.57;;;-4.20;99.90;;;;;;5017500;28;20540;-69
2024/01/10 05:45:11;;;;;;;18.17;11.00;;;-4.20;99.90;;;;;;5015511;28;20096;-69
2024/01/10 05:47:37;;;;;;;15.67;9.17;;;-4.20;99.90;;;;;;5022417;28;20029;-67
2024/01/10 05:50:06;;;;;;;13.20;9.40;;;-4.20;99.90;;;;;;5017666;28;20037;-68
2024/01/10 05:52:33;;;;;;;14.32;9.85;;;-4.20;99.90;;;;;;5020763;28;20120;-69
2024/01/10 05:54:59;;;;;;;;;;;-4.20;99.90;;;;;;5021730;28;20064;-68
2024/01/10 05:57:24;;;;;;;15.38;9.52;;;-4.20;99.90;;;;;;5037295;28;19925;-68
2024/01/10 05:59:52;;;;;;;13.53;9.53;;;-4.20;99.90;;;;;;5022141;28;20033;-69
2024/01/10 06:02:18;;;;;;;17.63;9.82;;;-4.20;99.90;;;;;;5023072;28;20037;-69
2024/01/10 06:04:43;;;;;;;11.57;8.93;;;-4.20;99.90;;;;;;5021705;28;20425;-70
2024/01/10 06:07:09;;;;;;;18.80;10.73;;;-4.20;99.90;;;;;;5023527;28;20042;-68
2024/01/10 06:09:34;;;;;;;17.17;10.07;;;-4.20;99.90;;;;;;5017023;28;20564;-68
2024/01/10 06:12:00;;;;;;;16.23;9.97;;;-4.20;99.90;;;;;;5024657;28;20045;-68
2024/01/10 06:14:26;;;;;;;20.00;11.87;;;-4.10;99.90;;;;;;5019050;28;20525;-69
2024/01/10 06:16:51;;;;;;;21.87;12.03;;;-4.20;99.90;;;;;;5023522;28;20084;-70
2024/01/10 06:19:18;;;;;;;15.63;10.53;;;-4.20;99.90;;;;;;5018823;28;20036;-67
2024/01/10 06:21:44;;;;;;;18.58;10.90;;;-4.10;99.90;;;;;;5018297;28;20050;-72
2024/01/10 06:24:09;;;;;;;16.47;11.63;;;-4.20;99.90;;;;;;5015990;28;20273;-68
2024/01/10 06:26:35;;;;;;;17.83;11.90;;;-4.20;99.90;;;;;;5019430;28;20102;-67
2024/01/10 06:29:00;;;;;;;20.57;12.03;;;-4.10;99.90;;;;;;5018429;28;20104;-68
2024/01/10 06:31:26;;;;;;;21.97;11.40;;;-4.20;99.90;;;;;;5018978;28;20041;-70
2024/01/10 06:33:52;;;;;;;17.80;12.03;;;-4.20;99.90;;;;;;5019185;28;20475;-68
2024/01/10 06:36:17;;;;;;;22.10;12.67;;;-4.20;99.90;;;;;;5022867;28;20355;-67
2024/01/10 06:38:43;;;;;;;20.37;12.50;;;-4.20;99.90;;;;;;5021109;28;20061;-68
2024/01/10 06:41:09;;;;;;;19.33;11.73;;;-4.20;99.90;;;;;;5023903;28;20116;-70
2024/01/10 06:43:36;;;;;;;23.52;12.68;;;-4.20;99.90;;;;;;5021547;28;20284;-68
2024/01/10 06:46:03;;;;;;;17.67;13.13;;;-4.20;99.90;;;;;;5021929;28;20072;-69
2024/01/10 06:48:29;;;;;;;;;;;-4.20;99.90;;;;;;5021293;28;20052;-71
2024/01/10 06:50:55;;;;;;;18.42;11.57;;;-4.20;99.90;;;;;;5020974;28;20422;-68
2024/01/10 06:53:21;;;;;;;19.77;13.27;;;-4.20;99.90;;;;;;5021091;28;20482;-69
2024/01/10 06:55:47;;;;;;;18.52;12.55;;;-4.20;99.90;;;;;;5022943;28;20041;-68
2024/01/10 06:58:12;;;;;;;19.43;12.37;;;-4.20;99.90;;;;;;5022122;28;20041;-68
2024/01/10 07:00:38;;;;;;;19.50;11.63;;;-4.20;99.90;;;;;;5016071;28;20041;-68
2024/01/10 07:03:04;;;;;;;17.80;11.93;;;-4.20;99.90;;;;;;5017628;28;20051;-72
2024/01/10 07:05:31;;;;;;;18.60;12.07;;;-4.30;99.90;;;;;;5017149;28;20048;-68
2024/01/10 07:07:58;;;;;;;19.60;12.25;;;-4.30;99.90;;;;;;5021479;28;20038;-69
2024/01/10 07:10:27;;;;;;;21.20;12.90;;;-4.30;99.90;;;;;;5016444;28;20084;-67
2024/01/10 07:12:53;;;;;;;20.38;11.77;;;-4.30;99.90;;;;;;5015368;28;20041;-69
2024/01/10 07:15:19;;;;;;;25.83;12.82;;;-4.30;99.90;;;;;;5031509;28;20484;-69
2024/01/10 07:17:45;;;;;;;19.42;13.23;;;-4.30;99.90;;;;;;5017945;28;20117;-72
2024/01/10 07:20:12;;;;;;;18.60;12.80;;;-4.30;99.90;;;;;;5022304;28;20678;-70
2024/01/10 07:22:41;;;;;;;;;;;-4.30;99.90;;;;;;5022632;28;20072;-67
2024/01/10 07:25:13;;;;;;;17.10;12.60;;;-4.30;99.90;;;;;;5035127;28;19963;-67
2024/01/10 07:27:40;;;;;;;23.13;12.80;;;-4.30;99.90;;;;;;5038596;28;20095;-67
2024/01/10 07:30:16;;;;;;;18.63;13.23;;;-4.30;99.90;;;;;;5019769;28;20520;-67
2024/01/10 07:32:42;;;;;;;21.33;12.20;;;-4.30;99.90;;;;;;5017253;28;20128;-71
2024/01/10 07:35:11;;;;;;;;;;;-4.30;99.90;;;;;;5014090;28;20042;-69
2024/01/10 07:37:37;;;;;;;16.08;11.55;;;-4.30;99.90;;;;;;5012022;28;20021;-68
2024/01/10 07:40:06;;;;;;;;;;;-4.30;99.90;;;;;;5013981;28;20037;-70
2024/01/10 07:42:32;;;;;;;18.15;10.50;;;-4.30;99.90;;;;;;5012300;28;19924;-69
2024/01/10 07:44:58;;;;;;;21.00;12.52;;;-4.30;99.90;;;;;;5012070;28;20050;-69
2024/01/10 07:47:23;;;;;;;18.60;12.77;;;-4.30;99.90;;;;;;5014727;28;20331;-71
2024/01/10 07:49:49;;;;;;;17.60;11.15;;;-4.30;99.90;;;;;;5023050;28;20263;-70
2024/01/10 07:52:16;;;;;;;19.23;11.57;;;-4.20;99.90;;;;;;5020168;28;20061;-69
2024/01/10 07:54:42;;;;;;;18.65;11.85;;;-4.20;99.90;;;;;;5037290;28;20076;-70
2024/01/10 07:57:07;;;;;;;16.02;11.10;;;-4.10;99.90;;;;;;5024554;28;20065;-69
2024/01/10 07:59:33;;;;;;;22.27;13.27;;;-4.00;99.90;;;;;;5019708;28;20034;-71
2024/01/10 08:02:00;;;;;;;19.63;11.67;;;-3.90;99.90;;;;;;5022659;28;20045;-70
2024/01/10 08:04:29;;;;;;;17.70;10.60;;;-3.80;99.90;;;;;;5020562;28;20044;-66
2024/01/10 08:06:55;;;;;;;16.95;11.60;;;-3.30;99.90;;;;;;5024436;28;20047;-68
2024/01/10 08:09:23;;;;;;;18.63;10.73;;;-2.70;99.90;;;;;;5017992;28;20132;-71
2024/01/10 08:11:49;;;;;;;20.35;11.20;;;-1.90;99.90;;;;;;5030002;28;20472;-67
2024/01/10 08:14:15;;;;;;;17.13;11.10;;;-1.20;99.90;;;;;;5014705;28;20037;-68
2024/01/10 08:16:41;;;;;;;20.33;12.63;;;-0.70;99.90;;;;;;5016617;28;20124;-69
2024/01/10 08:19:07;;;;;;;13.90;10.70;;;0.00;99.90;;;;;;5017454;28;20036;-69
2024/01/10 08:21:33;;;;;;;13.82;10.05;;;0.60;99.90;;;;;;5015923;28;20041;-68
2024/01/10 08:23:59;;;;;;;12.20;8.73;;;1.30;99.90;;;;;;5017131;28;20060;-68
2024/01/10 08:26:26;;;;;;;17.65;10.00;;;1.90;99.90;;;;;;5017635;28;20382;-68
2024/01/10 08:28:52;;;;;;;13.88;9.90;;;2.40;98.60;;;;;;5017893;28;20033;-70
2024/01/10 08:31:18;;;;;;;13.53;9.70;;;2.80;96.70;;;;;;5021493;28;20390;-69
2024/01/10 08:33:43;;;;;;;15.23;8.80;;;3.20;96.00;;;;;;5018889;28;21040;-68
2024/01/10 08:36:12;;;;;;;12.23;8.70;;;3.60;95.60;;;;;;5018789;28;20072;-68
2024/01/10 08:38:38;;;;;;;14.57;9.13;;;4.10;94.70;;;;;;5018611;28;20125;-67
2024/01/10 08:41:04;;;;;;;11.07;9.30;;;4.70;94.00;;;;;;5016509;28;20055;-70
2024/01/10 08:43:30;;;;;;;19.35;9.50;;;5.10;92.40;;;;;;5020328;28;20030;-67
2024/01/10 08:45:57;;;;;;;16.90;9.23;;;5.70;91.80;;;;;;5016478;28;20370;-67
2024/01/10 08:48:24;;;;;;;9.13;8.20;;;6.00;90.10;;;;;;5034495;28;20110;-67
2024/01/10 08:50:50;;;;;;;13.18;9.23;;;6.50;89.20;;;;;;5017948;28;20034;-66
2024/01/10 08:53:16;;;;;;;;;;;6.60;84.60;;;;;;5016410;28;20041;-69
2024/01/10 08:55:42;;;;;;;10.02;8.00;;;6.90;83.30;;;;;;5018419;28;19925;-67
2024/01/10 08:58:08;;;;;;;14.25;8.60;;;7.20;81.50;;;;;;5017716;28;20069;-67
2024/01/10 09:00:34;;;;;;;8.93;7.97;;;7.60;81.20;;;;;;5014845;28;20072;-67
2024/01/10 09:03:00;;;;;;;12.60;7.88;;;8.00;78.90;;;;;;5018616;28;20033;-70
2024/01/10 09:05:26;;;;;;;;;;;8.30;76.50;;;;;;5018204;28;20033;-71
2024/01/10 09:07:53;;;;;;;11.00;8.48;;;8.80;73.80;;;;;;5010790;28;19924;-71
2024/01/10 09:10:21;;;;;;;8.20;6.43;;;9.20;72.90;;;;;;5023697;28;20046;-68
2024/01/10 09:12:47;;;;;;;15.50;7.32;;;9.50;70.50;;;;;;5017856;28;20114;-69
2024/01/10 09:15:14;;;;;;;8.73;7.05;;;9.90;70.80;;;;;;5024109;28;20033;-72
2024/01/10 09:17:43;;;;;;;9.98;7.50;;;10.20;68.60;;;;;;5022163;28;20033;-68
2024/01/10 09:20:09;;;;;;;10.55;7.28;;;10.60;66.90;;;;;;5015105;28;20079;-69
2024/01/10 09:22:34;;;;;;;8.73;6.82;;;10.90;65.20;;;;;;5017024;28;20068;-66
2024/01/10 09:25:03;;;;;;;7.57;6.57;;;11.20;63.50;;;;;;5015066;28;20071;-73
2024/01/10 09:27:30;;;;;;;7.03;6.32;;;11.50;62.10;;;;;;5016742;28;20068;-73
2024/01/10 09:29:56;;;;;;;7.85;6.75;;;11.70;61.30;;;;;;5019063;28;20067;-68
2024/01/10 09:32:22;;;;;;;8.17;7.17;;;12.10;60.80;;;;;;5018395;28;20041;-68
2024/01/10 09:34:47;;;;;;;6.00;5.45;;;12.30;59.10;;;;;;5018942;28;20308;-72
2024/01/10 09:37:13;;;;;;;6.30;5.35;;;12.70;58.90;;;;;;5015929;28;20080;-70
2024/01/10 09:39:39;;;;;;;7.10;6.25;;;12.90;57.40;;;;;;5015098;28;20503;-69
2024/01/10 09:42:06;;;;;;;7.78;6.30;;;13.10;56.20;;;;;;5020355;28;20053;-68
2024/01/10 09:44:33;;;;;;;6.22;5.57;;;13.20;55.50;;;;;;5016769;28;20683;-67
2024/01/10 09:46:59;;;;;;;7.85;5.97;;;13.20;54.80;;;;;;5001723;28;20065;-72
2024/01/10 09:49:25;;;;;;;9.88;6.18;;;13.30;54.30;;;;;;5015703;28;20128;-71
2024/01/10 09:52:02;;;;;;;6.95;5.80;;;13.30;53.70;;;;;;5018077;28;20045;-67
2024/01/10 09:54:30;;;;;;;5.72;5.03;;;13.50;53.50;;;;;;5014961;28;20052;-73
2024/01/10 09:56:59;;;;;;;6.63;5.78;;;13.70;52.80;;;;;;5017439;28;20037;-68
2024/01/10 09:59:25;;;;;;;6.40;5.65;;;14.10;53.50;;;;;;5017154;28;20048;-67
2024/01/10 10:01:56;;;;;;;7.82;5.20;;;14.30;52.10;;;;;;5017310;28;20045;-69
2024/01/10 10:04:23;;;;;;;6.78;6.10;;;14.10;50.80;;;;;;5012379;28;20036;-69
2024/01/10 10:07:01;;;;;;;5.90;5.38;;;13.50;50.50;;;;;;5031816;28;20072;-69
2024/01/10 10:09:28;;;;;;;7.22;6.03;;;12.50;51.50;;;;;;5016312;28;20037;-68
2024/01/10 10:11:55;;;;;;;7.07;6.13;;;11.60;51.60;;;;;;5012521;28;20053;-66
2024/01/10 10:14:21;;;;;;;5.97;5.43;;;11.60;53.10;;;;;;5014649;28;20034;-66
2024/01/10 10:16:46;;;;;;;6.72;5.57;;;11.80;52.80;;;;;;5015396;28;20494;-67
2024/01/10 10:19:13;;;;;;;9.32;5.70;;;12.30;52.60;;;;;;5009563;28;20049;-68
2024/01/10 10:21:38;;;;;;;5.78;5.00;;;12.80;52.40;;;;;;5010528;28;20064;-68
2024/01/10 10:24:05;;;;;;;8.63;5.07;;;13.40;52.40;;;;;;5028175;28;20597;-69
2024/01/10 10:26:33;;;;;;;;;;;13.70;51.70;;;;;;5017525;28;20924;-67
2024/01/10 10:28:59;;;;;;;5.75;5.15;;;14.00;50.10;;;;;;5002249;28;19916;-69
2024/01/10 10:31:26;;;;;;;10.27;5.68;;;14.20;50.60;;;;;;5013718;28;20053;-68
2024/01/10 10:33:52;;;;;;;7.47;5.95;;;13.60;49.60;;;;;;5011401;28;20068;-67
2024/01/10 10:36:18;;;;;;;;;;;12.80;49.80;;;;;;5019097;28;20060;-72
2024/01/10 10:38:44;;;;;;;6.80;5.43;;;12.10;49.30;;;;;;5012449;28;20385;-67
2024/01/10 10:41:12;;;;;;;9.07;6.88;;;11.60;50.90;;;;;;5019257;28;20036;-68
2024/01/10 10:43:39;;;;;;;6.97;5.57;;;11.80;51.20;;;;;;5026600;28;20034;-67
2024/01/10 10:46:07;;;;;;;7.05;5.45;;;12.40;51.30;;;;;;5021831;28;20137;-71
2024/01/10 10:48:36;;;;;;;6.40;5.80;;;13.10;50.60;;;;;;5013889;28;20049;-68
2024/01/10 10:51:08;;;;;;;6.18;5.50;;;13.60;50.10;;;;;;5020117;28;20049;-67
2024/01/10 10:53:36;;;;;;;6.65;5.45;;;14.20;50.30;;;;;;5017947;28;20446;-70
2024/01/10 10:56:04;;;;;;;6.88;5.80;;;14.70;49.80;;;;;;5016957;28;20127;-67
2024/01/10 10:58:39;;;;;;;5.65;5.15;;;15.10;49.30;;;;;;5031334;28;20038;-68
2024/01/10 11:01:06;;;;;;;6.03;5.43;;;15.50;48.80;;;;;;5016283;28;20052;-69
2024/01/10 11:03:35;;;;;;;7.05;5.55;;;15.70;47.90;;;;;;5015623;28;20083;-67
2024/01/10 11:06:02;;;;;;;5.95;5.25;;;15.40;47.90;;;;;;5012802;28;20103;-66
2024/01/10 11:08:33;;;;;;;6.63;5.60;;;14.80;47.40;;;;;;5012331;28;20239;-68
2024/01/10 11:11:00;;;;;;;8.35;5.63;;;13.80;46.90;;;;;;5015295;28;20041;-69
2024/01/10 11:13:34;;;;;;;8.27;5.93;;;12.90;47.30;;;;;;5015321;28;20481;-66
2024/01/10 11:16:41;;;;;;;6.43;5.43;;;11.90;48.30;;;;;;5013198;28;20055;-67
2024/01/10 11:19:09;;;;;;;8.88;5.47;;;11.80;48.40;;;;;;5013935;28;20041;-68
2024/01/10 11:22:05;;;;;;;7.22;5.03;;;12.40;49.40;;;;;;5034477;28;20046;-66
2024/01/10 11:24:31;;;;;;;6.72;4.90;;;13.50;48.60;;;;;;5021681;28;20033;-70
2024/01/10 11:27:18;;;;;;;6.75;4.60;;;14.70;48.00;;;;;;5019182;28;20048;-69
2024/01/10 11:29:46;;;;;;;6.18;5.55;;;15.60;47.10;;;;;;5019067;28;20368;-71
2024/01/10 11:32:16;;;;;;;7.35;5.03;;;16.30;46.90;;;;;;5016519;28;20048;-66
2024/01/10 11:34:54;;;;;;;27.95;7.45;;;17.10;46.20;;;;;;5018981;28;20042;-66
2024/01/10 11:37:19;;;;;;;6.65;4.65;;;17.90;46.60;;;;;;5019392;28;20096;-66
2024/01/10 11:39:45;;;;;;;4.63;4.22;;;18.70;46.10;;;;;;5017474;28;20073;-69
2024/01/10 11:42:12;;;;;;;5.75;4.55;;;19.40;45.70;;;;;;5022562;28;20104;-67
2024/01/10 11:44:49;;;;;;;7.10;4.53;;;19.90;45.30;;;;;;5022955;28;20065;-66
2024/01/10 11:47:15;;;;;;;5.97;4.72;;;20.40;44.50;;;;;;5020751;28;20509;-66
2024/01/10 11:49:53;;;;;;;4.93;4.20;;;20.70;43.90;;;;;;5030783;28;20099;-66
2024/01/10 11:52:22;;;;;;;6.13;3.85;;;20.70;43.40;;;;;;5010045;28;20450;-66
2024/01/10 11:54:48;;;;;;;5.57;4.35;;;21.10;43.60;;;;;;5015648;28;20066;-66
2024/01/10 11:57:27;;;;;;;6.60;4.90;;;21.40;43.90;;;;;;5017982;28;20069;-67
2024/01/10 11:59:56;;;;;;;6.15;4.43;;;21.70;43.10;;;;;;5020304;28;20449;-69
2024/01/10 12:02:26;;;;;;;5.95;4.53;;;22.10;43.10;;;;;;5018969;28;20063;-66
2024/01/10 12:04:53;;;;;;;4.78;4.05;;;22.60;43.10;;;;;;5016627;28;20052;-68
2024/01/10 12:07:19;;;;;;;5.75;4.25;;;23.00;42.80;;;;;;5034789;28;20124;-65
2024/01/10 12:09:46;;;;;;;5.35;4.75;;;23.20;42.70;;;;;;5018773;28;20132;-68
2024/01/10 12:12:14;;;;;;;4.30;3.90;;;23.10;41.80;;;;;;5016595;28;20096;-63
2024/01/10 12:14:41;;;;;;;4.68;3.72;;;22.70;41.40;;;;;;5014864;28;20041;-65
2024/01/10 12:17:09;;;;;;;4.18;3.28;;;22.50;41.60;;;;;;5015950;28;20121;-65
2024/01/10 12:19:37;;;;;;;5.18;3.55;;;22.20;41.40;;;;;;5019230;28;20060;-63
2024/01/10 12:22:05;;;;;;;3.97;3.10;;;21.70;41.50;;;;;;5016352;28;20057;-66
2024/01/10 12:24:30;;;;;;;4.13;3.15;;;21.40;41.00;;;;;;5012361;28;20044;-66
2024/01/10 12:26:56;;;;;;;4.38;3.75;;;20.70;40.70;;;;;;5017803;28;20426;-67
2024/01/10 12:29:24;;;;;;;5.03;2.90;;;19.60;41.10;;;;;;5017113;28;20033;-64
2024/01/10 12:31:49;;;;;;;4.20;3.80;;;18.60;41.00;;;;;;5019173;28;20071;-65
2024/01/10 12:34:15;;;;;;;4.25;3.60;;;17.50;41.70;;;;;;5015390;28;20049;-65
2024/01/10 12:36:41;;;;;;;5.63;3.53;;;16.40;41.70;;;;;;5015827;28;20516;-64
2024/01/10 12:39:07;;;;;;;6.22;3.55;;;15.60;42.60;;;;;;5012240;28;20043;-67
2024/01/10 12:41:34;;;;;;;5.45;3.30;;;14.80;42.90;;;;;;5015394;28;20041;-67